createdAt,value
2022-09-13T00:01:16.383Z,1.40
2022-09-13T00:03:43.694Z,1.57
2022-09-13T00:06:18.376Z,1.60
2022-09-13T00:08:46.617Z,1.50
2022-09-13T00:11:18.960Z,1.50
2022-09-13T00:13:47.573Z,1.50
2022-09-13T00:16:18.501Z,1.40
2022-09-13T00:18:46.273Z,1.67
2022-09-13T00:21:17.381Z,1.60
2022-09-13T00:23:50.866Z,1.40
2022-09-13T00:26:28.013Z,1.27
2022-09-13T00:28:58.503Z,1.50
2022-09-13T00:31:28.350Z,1.40
2022-09-13T00:33:58.417Z,1.60
2022-09-13T00:36:25.663Z,1.50
2022-09-13T00:38:53.002Z,1.53
2022-09-13T00:41:21.886Z,1.67
2022-09-13T00:43:57.498Z,1.60
2022-09-13T00:46:42.520Z,1.30
2022-09-13T00:49:27.926Z,1.40
2022-09-13T00:52:07.328Z,1.50
2022-09-13T00:54:42.852Z,1.53
2022-09-13T00:57:13.025Z,1.57
2022-09-13T01:00:02.955Z,1.67
2022-09-13T01:02:30.957Z,1.30
2022-09-13T01:04:58.517Z,1.63
2022-09-13T01:07:25.795Z,1.70
2022-09-13T01:09:54.017Z,1.40
2022-09-13T01:12:49.249Z,1.47
2022-09-13T01:15:16.400Z,1.70
2022-09-13T01:17:44.351Z,1.67
2022-09-13T01:20:13.016Z,1.70
2022-09-13T01:22:48.808Z,1.40
2022-09-13T01:25:34.186Z,1.47
2022-09-13T01:28:24.495Z,1.60
2022-09-13T01:31:10.123Z,1.60
2022-09-13T01:33:54.905Z,1.77
2022-09-13T01:36:56.832Z,1.80
2022-09-13T01:39:52.378Z,1.60
2022-09-13T01:42:59.475Z,1.80
2022-09-13T01:46:06.208Z,1.90
2022-09-13T01:49:19.986Z,2.00
2022-09-13T01:52:16.542Z,1.60
2022-09-13T01:55:02.209Z,1.80
2022-09-13T01:58:05.992Z,2.00
2022-09-13T02:00:59.966Z,1.73
2022-09-13T02:03:37.795Z,1.80
2022-09-13T02:06:17.310Z,1.70
2022-09-13T02:08:55.216Z,2.00
2022-09-13T02:11:24.066Z,1.70
2022-09-13T02:14:21.375Z,1.80
2022-09-13T02:17:01.489Z,1.83
2022-09-13T02:20:10.170Z,2.10
2022-09-13T02:22:46.149Z,2.30
2022-09-13T02:25:19.528Z,2.00
2022-09-13T02:27:53.315Z,1.80
2022-09-13T02:30:20.851Z,2.10
2022-09-13T02:33:08.309Z,1.70
2022-09-13T02:35:54.734Z,1.90
2022-09-13T02:38:43.349Z,2.00
2022-09-13T02:41:21.886Z,1.87
2022-09-13T02:44:06.468Z,1.73
2022-09-13T02:47:31.894Z,1.80
2022-09-13T02:50:16.033Z,1.90
2022-09-13T02:53:04.052Z,1.90
2022-09-13T02:55:54.987Z,1.87
2022-09-13T02:58:29.168Z,2.10
2022-09-13T03:00:56.628Z,1.97
2022-09-13T03:03:25.113Z,2.13
2022-09-13T03:05:53.773Z,2.00
2022-09-13T03:08:24.457Z,1.90
2022-09-13T03:11:05.982Z,1.80
2022-09-13T03:14:20.469Z,2.00
2022-09-13T03:17:15.648Z,2.10
2022-09-13T03:20:24.570Z,2.13
2022-09-13T03:23:35.990Z,1.90
2022-09-13T03:26:46.462Z,2.10
2022-09-13T03:29:58.949Z,2.00
2022-09-13T03:33:13.802Z,2.03
2022-09-13T03:35:50.863Z,2.23
2022-09-13T03:39:00.618Z,2.07
2022-09-13T03:41:39.507Z,2.30
2022-09-13T03:44:16.912Z,2.10
2022-09-13T03:46:48.748Z,2.20
2022-09-13T03:49:20.205Z,2.00
2022-09-13T03:51:51.296Z,1.90
2022-09-13T03:54:32.363Z,2.00
2022-09-13T03:57:18.459Z,2.03
2022-09-13T03:59:52.688Z,2.07
2022-09-13T04:02:22.050Z,2.13
2022-09-13T04:04:49.623Z,2.43
2022-09-13T04:07:23.113Z,2.47
2022-09-13T04:09:50.463Z,2.50
2022-09-13T04:12:18.999Z,2.83
2022-09-13T04:14:46.222Z,2.43
2022-09-13T04:17:14.730Z,2.50
2022-09-13T04:19:42.983Z,2.67
2022-09-13T04:22:10.168Z,3.37
2022-09-13T04:24:37.282Z,7.00
2022-09-13T04:27:04.694Z,4.43
2022-09-13T04:29:32.022Z,3.60
2022-09-13T04:31:59.904Z,3.17
2022-09-13T04:34:27.224Z,3.67
2022-09-13T04:36:54.596Z,6.40
2022-09-13T04:39:22.502Z,5.53
2022-09-13T04:41:51.385Z,8.73
2022-09-13T04:44:18.874Z,7.70
2022-09-13T04:46:50.212Z,4.30
2022-09-13T04:49:18.886Z,3.37
2022-09-13T04:51:49.056Z,5.70
2022-09-13T04:54:16.586Z,5.63
2022-09-13T04:56:45.522Z,4.70
2022-09-13T04:59:13.315Z,4.60
2022-09-13T05:01:41.071Z,3.20
2022-09-13T05:04:09.796Z,3.33
2022-09-13T05:06:37.663Z,3.70
2022-09-13T05:09:05.717Z,4.80
2022-09-13T05:11:33.335Z,2.80
2022-09-13T05:14:01.396Z,3.27
2022-09-13T05:16:32.228Z,3.80
2022-09-13T05:19:00.972Z,3.87
2022-09-13T05:21:29.334Z,4.03
2022-09-13T05:23:58.036Z,4.20
2022-09-13T05:26:28.131Z,5.27
2022-09-13T05:28:55.319Z,5.97
2022-09-13T05:31:30.671Z,3.80
2022-09-13T05:34:14.195Z,4.33
2022-09-13T05:36:42.557Z,3.53
2022-09-13T05:42:02.625Z,3.53
2022-09-13T05:44:29.937Z,3.90
2022-09-13T05:46:57.084Z,3.37
2022-09-13T05:49:24.265Z,3.73
2022-09-13T05:51:51.496Z,3.77
2022-09-13T05:54:18.619Z,3.87
2022-09-13T05:56:45.909Z,3.60
2022-09-13T05:59:14.020Z,4.33
2022-09-13T06:01:41.420Z,3.70
2022-09-13T06:04:08.845Z,4.60
2022-09-13T06:06:36.100Z,3.90
2022-09-13T06:09:03.603Z,3.87
2022-09-13T06:11:31.539Z,5.53
2022-09-13T06:13:58.778Z,5.63
2022-09-13T06:16:26.300Z,4.47
2022-09-13T06:18:53.564Z,3.60
2022-09-13T06:21:28.231Z,3.80
2022-09-13T06:23:56.388Z,4.40
2022-09-13T06:26:27.395Z,4.20
2022-09-13T06:28:57.685Z,4.10
2022-09-13T06:31:28.409Z,3.90
2022-09-13T06:34:01.607Z,3.93
2022-09-13T06:36:29.341Z,4.57
2022-09-13T06:38:56.471Z,5.80
2022-09-13T06:41:25.143Z,4.90
2022-09-13T06:43:58.873Z,7.70
2022-09-13T06:46:29.420Z,6.57
2022-09-13T06:49:01.493Z,5.40
2022-09-13T06:51:37.585Z,4.80
2022-09-13T06:54:05.511Z,4.83
2022-09-13T06:56:38.653Z,4.67
2022-09-13T06:59:10.884Z,6.00
2022-09-13T07:01:42.323Z,4.93
2022-09-13T07:04:18.596Z,5.57
2022-09-13T07:06:49.240Z,5.20
2022-09-13T07:09:22.178Z,5.83
2022-09-13T07:11:54.725Z,5.10
2022-09-13T07:14:28.096Z,5.37
2022-09-13T07:16:56.124Z,4.63
2022-09-13T07:19:26.319Z,4.70
2022-09-13T07:21:55.965Z,5.03
2022-09-13T07:24:24.068Z,5.00
2022-09-13T07:26:51.834Z,5.57
2022-09-13T07:29:22.831Z,4.80
2022-09-13T07:31:55.406Z,4.43
2022-09-13T07:34:25.736Z,4.93
2022-09-13T07:36:53.800Z,5.10
2022-09-13T07:39:22.996Z,4.60
2022-09-13T07:41:52.136Z,4.27
2022-09-13T07:44:19.445Z,4.87
2022-09-13T07:46:46.672Z,4.07
2022-09-13T07:49:19.434Z,4.37
2022-09-13T07:51:46.702Z,3.93
2022-09-13T07:54:18.126Z,4.43
2022-09-13T07:56:46.199Z,4.23
2022-09-13T07:59:16.746Z,3.80
2022-09-13T08:01:48.040Z,3.80
2022-09-13T08:04:19.235Z,4.67
2022-09-13T08:06:47.717Z,3.90
2022-09-13T08:09:16.481Z,3.50
2022-09-13T08:11:53.606Z,3.87
2022-09-13T08:14:23.191Z,3.53
2022-09-13T08:16:51.225Z,3.57
2022-09-13T08:19:19.502Z,3.37
2022-09-13T08:21:47.811Z,3.17
2022-09-13T08:24:22.530Z,2.87
2022-09-13T08:26:50.452Z,2.80
2022-09-13T08:29:17.780Z,3.17
2022-09-13T08:31:45.308Z,2.60
2022-09-13T08:34:17.376Z,2.77
2022-09-13T08:36:45.120Z,2.53
2022-09-13T08:39:13.191Z,3.00
2022-09-13T08:41:40.357Z,2.80
2022-09-13T08:44:43.049Z,2.50
2022-09-13T08:47:39.761Z,2.20
2022-09-13T08:50:23.777Z,2.53
2022-09-13T08:53:08.560Z,2.10
2022-09-13T08:56:23.270Z,2.90
2022-09-13T08:59:16.430Z,2.67
2022-09-13T09:02:41.290Z,2.20
2022-09-13T09:05:31.136Z,2.40
2022-09-13T09:08:22.750Z,2.40
2022-09-13T09:10:53.180Z,2.17
2022-09-13T09:13:53.928Z,1.90
2022-09-13T09:16:48.446Z,2.23
2022-09-13T09:19:33.036Z,1.90
2022-09-13T09:22:04.437Z,1.83
2022-09-13T09:24:37.527Z,2.00
2022-09-13T09:27:16.643Z,2.10
2022-09-13T09:29:46.026Z,1.97
2022-09-13T09:32:52.920Z,1.80
2022-09-13T09:36:07.623Z,1.90
2022-09-13T09:38:42.617Z,1.90
2022-09-13T09:41:32.439Z,1.80
2022-09-13T09:44:22.506Z,1.97
2022-09-13T09:47:13.505Z,1.90
2022-09-13T09:49:55.986Z,1.90
2022-09-13T09:53:07.550Z,1.90
2022-09-13T09:55:58.625Z,2.30
2022-09-13T09:58:46.604Z,2.00
2022-09-13T10:01:28.090Z,1.67
2022-09-13T10:04:19.722Z,1.70
2022-09-13T10:06:47.103Z,1.60
2022-09-13T10:09:14.602Z,1.60
2022-09-13T10:11:54.068Z,1.70
2022-09-13T10:14:38.158Z,1.80
2022-09-13T10:17:14.501Z,1.60
2022-09-13T10:19:50.809Z,1.70
2022-09-13T10:22:18.380Z,1.53
2022-09-13T10:24:45.892Z,1.60
2022-09-13T10:27:25.157Z,1.53
2022-09-13T10:29:55.729Z,1.42
2022-09-13T10:32:23.658Z,1.67
2022-09-13T10:34:52.228Z,1.90
2022-09-13T10:37:29.272Z,1.40
2022-09-13T10:40:06.328Z,1.60
2022-09-13T10:42:34.920Z,2.08
2022-09-13T10:45:04.576Z,1.63
2022-09-13T10:47:54.799Z,1.50
2022-09-13T10:50:26.190Z,1.52
2022-09-13T10:53:00.419Z,1.42
2022-09-13T10:55:30.182Z,1.30
2022-09-13T10:58:03.806Z,1.48
2022-09-13T11:01:03.982Z,1.50
2022-09-13T11:04:00.400Z,1.60
2022-09-13T11:06:50.302Z,1.40
2022-09-13T11:09:44.108Z,1.50
2022-09-13T11:12:28.657Z,1.50
2022-09-13T11:15:14.918Z,1.40
2022-09-13T11:18:06.480Z,1.40
2022-09-13T11:20:52.066Z,1.30
2022-09-13T11:23:30.222Z,1.30
2022-09-13T11:26:23.733Z,1.50
2022-09-13T11:29:31.067Z,1.42
2022-09-13T11:32:19.125Z,1.60
2022-09-13T11:35:29.593Z,1.65
2022-09-13T11:38:21.687Z,1.55
2022-09-13T11:41:03.327Z,1.23
2022-09-13T11:43:36.079Z,1.58
2022-09-13T11:46:21.577Z,1.23
2022-09-13T11:48:58.955Z,1.25
2022-09-13T11:51:47.137Z,1.17
2022-09-13T11:54:55.203Z,1.40
2022-09-13T11:57:32.886Z,1.70
2022-09-13T12:00:15.527Z,1.67
2022-09-13T12:03:08.809Z,1.60
2022-09-13T12:05:44.593Z,1.45
2022-09-13T12:08:22.868Z,1.35
2022-09-13T12:11:04.802Z,1.60
2022-09-13T12:14:02.659Z,1.17
2022-09-13T12:16:40.650Z,1.40
2022-09-13T12:19:29.123Z,1.58
2022-09-13T12:22:01.086Z,1.27
2022-09-13T12:24:53.612Z,1.45
2022-09-13T12:27:47.497Z,1.20
2022-09-13T12:30:19.643Z,1.50
2022-09-13T12:32:49.403Z,1.15
2022-09-13T12:36:11.136Z,2.08
2022-09-13T12:39:19.416Z,1.92
2022-09-13T12:42:23.825Z,1.30
2022-09-13T12:45:16.123Z,1.90
2022-09-13T12:48:09.928Z,1.45
2022-09-13T12:51:07.510Z,1.10
2022-09-13T12:54:04.153Z,1.10
2022-09-13T12:57:25.874Z,9.95
2022-09-13T13:00:24.114Z,1.35
2022-09-13T13:03:04.824Z,1.38
2022-09-13T13:05:41.427Z,1.27
2022-09-13T13:08:30.656Z,1.27
2022-09-13T13:11:14.343Z,1.20
2022-09-13T13:13:53.368Z,1.08
2022-09-13T13:16:28.616Z,1.20
2022-09-13T13:19:02.737Z,1.17
2022-09-13T13:21:39.646Z,1.15
2022-09-13T13:24:27.794Z,0.85
2022-09-13T13:26:59.455Z,1.00
2022-09-13T13:29:30.463Z,0.90
2022-09-13T13:31:57.672Z,1.30
2022-09-13T13:34:51.050Z,0.85
2022-09-13T13:37:18.163Z,0.85
2022-09-13T13:39:48.871Z,0.98
2022-09-13T13:42:31.507Z,0.80
2022-09-13T13:45:01.439Z,0.93
2022-09-13T13:47:29.123Z,1.00
2022-09-13T13:50:17.415Z,0.90
2022-09-13T13:52:47.384Z,1.00
2022-09-13T13:55:43.348Z,1.08
2022-09-13T13:58:16.170Z,1.10
2022-09-13T14:00:51.218Z,1.13
2022-09-13T14:03:55.032Z,0.80
2022-09-13T14:07:00.475Z,0.90
2022-09-13T14:09:57.766Z,1.00
2022-09-13T14:12:36.695Z,0.80
2022-09-13T14:15:28.880Z,1.13
2022-09-13T14:18:27.156Z,1.20
2022-09-13T14:21:03.452Z,1.10
2022-09-13T14:23:31.809Z,1.00
2022-09-13T14:26:01.101Z,1.00
2022-09-13T14:28:28.761Z,1.30
2022-09-13T14:30:59.856Z,1.50
2022-09-13T14:33:33.569Z,0.90
2022-09-13T14:36:20.646Z,0.90
2022-09-13T14:38:57.235Z,0.93
2022-09-13T14:41:38.456Z,1.10
2022-09-13T14:44:28.934Z,0.88
2022-09-13T14:47:21.207Z,0.90
2022-09-13T14:49:59.957Z,1.13
2022-09-13T14:52:35.511Z,1.90
2022-09-13T14:55:23.993Z,1.50
2022-09-13T14:58:00.378Z,4.03
2022-09-13T15:00:28.711Z,1.73
2022-09-13T15:03:01.392Z,2.03
2022-09-13T15:05:34.045Z,1.30
2022-09-13T15:08:43.063Z,2.00
2022-09-13T15:11:35.309Z,3.85
2022-09-13T15:14:35.027Z,1.73
2022-09-13T15:17:13.637Z,1.35
2022-09-13T15:19:50.523Z,1.25
2022-09-13T15:22:25.013Z,2.30
2022-09-13T15:25:03.666Z,1.27
2022-09-13T15:27:47.508Z,2.53
2022-09-13T15:30:26.372Z,1.60
2022-09-13T15:33:11.921Z,1.00
2022-09-13T15:35:47.608Z,1.75
2022-09-13T15:38:31.146Z,1.85
2022-09-13T15:41:13.502Z,1.00
2022-09-13T15:43:40.785Z,1.23
2022-09-13T15:46:15.473Z,1.13
2022-09-13T15:48:56.779Z,1.17
2022-09-13T15:51:24.054Z,1.48
2022-09-13T15:53:52.085Z,1.58
2022-09-13T15:56:31.617Z,2.55
2022-09-13T15:58:59.218Z,1.45
2022-09-13T16:01:26.739Z,1.67
2022-09-13T16:03:54.340Z,1.45
2022-09-13T16:06:24.557Z,1.30
2022-09-13T16:08:51.984Z,1.48
2022-09-13T16:11:19.232Z,1.75
2022-09-13T16:13:46.398Z,1.50
2022-09-13T16:16:16.409Z,1.60
2022-09-13T16:18:43.820Z,1.40
2022-09-13T16:21:11.064Z,1.65
2022-09-13T16:23:38.226Z,1.63
2022-09-13T16:26:06.139Z,1.70
2022-09-13T16:28:33.436Z,1.67
2022-09-13T16:31:00.761Z,1.70
2022-09-13T16:33:28.043Z,2.00
2022-09-13T16:35:58.012Z,2.10
2022-09-13T16:38:28.749Z,2.10
2022-09-13T16:40:55.851Z,2.00
2022-09-13T16:43:23.303Z,2.05
2022-09-13T16:45:52.814Z,1.80
2022-09-13T16:48:19.940Z,1.60
2022-09-13T16:50:47.084Z,1.65
2022-09-13T16:53:14.250Z,1.95
2022-09-13T16:55:41.510Z,1.90
2022-09-13T16:58:09.007Z,1.95
2022-09-13T17:00:36.141Z,1.90
2022-09-13T17:03:03.837Z,2.10
2022-09-13T17:05:31.047Z,1.98
2022-09-13T17:07:58.287Z,2.15
2022-09-13T17:10:25.528Z,1.80
2022-09-13T17:12:52.767Z,1.80
2022-09-13T17:15:20.054Z,2.20
2022-09-13T17:17:47.321Z,1.90
2022-09-13T17:20:14.691Z,2.30
2022-09-13T17:22:41.950Z,2.40
2022-09-13T17:25:10.616Z,2.30
2022-09-13T17:27:37.981Z,1.95
2022-09-13T17:30:06.312Z,2.00
2022-09-13T17:32:33.662Z,2.30
2022-09-13T17:35:00.833Z,2.10
2022-09-13T17:37:28.399Z,1.98
2022-09-13T17:39:55.730Z,2.25
2022-09-13T17:42:23.633Z,2.20
2022-09-13T17:44:51.215Z,2.10
2022-09-13T17:47:18.361Z,2.28
2022-09-13T17:49:45.636Z,2.25
2022-09-13T17:52:12.805Z,2.28
2022-09-13T17:54:40.072Z,2.40
2022-09-13T17:57:07.675Z,2.40
2022-09-13T17:59:34.819Z,2.40
2022-09-13T18:02:02.334Z,2.38
2022-09-13T18:04:29.769Z,2.20
2022-09-13T18:06:57.064Z,2.30
2022-09-13T18:09:24.315Z,2.40
2022-09-13T18:11:51.821Z,2.22
2022-09-13T18:14:20.783Z,2.67
2022-09-13T18:16:48.429Z,2.10
2022-09-13T18:19:44.956Z,2.55
2022-09-13T18:22:12.317Z,2.45
2022-09-13T18:24:39.525Z,2.92
2022-09-13T18:27:06.795Z,2.50
2022-09-13T18:29:34.086Z,2.57
2022-09-13T18:32:01.510Z,2.70
2022-09-13T18:34:28.785Z,3.13
2022-09-13T18:36:59.209Z,2.92
2022-09-13T18:39:26.383Z,2.90
2022-09-13T18:41:54.039Z,2.90
2022-09-13T18:44:24.744Z,2.60
2022-09-13T18:46:52.061Z,2.47
2022-09-13T18:49:19.265Z,2.55
2022-09-13T18:51:46.426Z,2.75
2022-09-13T18:54:16.510Z,2.60
2022-09-13T18:56:46.681Z,2.38
2022-09-13T18:59:14.594Z,2.60
2022-09-13T19:01:44.157Z,2.90
2022-09-13T19:04:17.856Z,2.60
2022-09-13T19:06:50.351Z,2.73
2022-09-13T19:09:18.629Z,2.53
2022-09-13T19:11:48.731Z,3.00
2022-09-13T19:14:23.346Z,2.67
2022-09-13T19:16:52.413Z,3.00
2022-09-13T19:19:19.722Z,2.97
2022-09-13T19:21:46.951Z,2.73
2022-09-13T19:24:17.294Z,2.90
2022-09-13T19:26:47.988Z,3.00
2022-09-13T19:29:18.703Z,2.80
2022-09-13T19:31:52.293Z,2.70
2022-09-13T19:34:21.724Z,2.70
2022-09-13T19:36:50.393Z,2.90
2022-09-13T19:39:17.929Z,3.20
2022-09-13T19:41:45.101Z,2.63
2022-09-13T19:44:15.406Z,2.77
2022-09-13T19:46:43.447Z,2.50
2022-09-13T19:49:16.573Z,2.65
2022-09-13T19:51:48.853Z,2.40
2022-09-13T19:54:19.299Z,2.40
2022-09-13T19:56:46.810Z,2.70
2022-09-13T19:59:17.037Z,2.40
2022-09-13T20:01:47.083Z,2.50
2022-09-13T20:04:18.748Z,2.43
2022-09-13T20:06:49.551Z,2.17
2022-09-13T20:09:20.539Z,2.63
2022-09-13T20:11:48.776Z,2.53
2022-09-13T20:14:20.247Z,2.43
2022-09-13T20:16:48.548Z,2.50
2022-09-13T20:19:39.332Z,2.60
2022-09-13T20:22:06.681Z,2.37
2022-09-13T20:24:33.889Z,2.40
2022-09-13T20:27:01.087Z,2.57
2022-09-13T20:29:28.243Z,2.27
2022-09-13T20:31:55.555Z,2.10
2022-09-13T20:34:22.890Z,2.30
2022-09-13T20:36:50.088Z,2.20
2022-09-13T20:39:17.269Z,2.40
2022-09-13T20:41:44.801Z,2.40
2022-09-13T20:44:12.550Z,2.20
2022-09-13T20:46:40.040Z,2.50
2022-09-13T20:49:08.691Z,2.60
2022-09-13T20:51:36.654Z,2.07
2022-09-13T20:54:04.328Z,2.00
2022-09-13T20:56:32.136Z,2.10
2022-09-13T20:58:59.661Z,2.13
2022-09-13T21:01:29.708Z,1.80
2022-09-13T21:03:58.085Z,1.80
2022-09-13T21:06:29.125Z,1.90
2022-09-13T21:08:57.098Z,1.93
2022-09-13T21:11:32.968Z,1.80
2022-09-13T21:14:04.737Z,2.10
2022-09-13T21:16:36.135Z,2.10
2022-09-13T21:19:03.915Z,2.17
2022-09-13T21:21:35.133Z,2.13
2022-09-13T21:24:04.091Z,2.13
2022-09-13T21:26:32.296Z,2.20
2022-09-13T21:29:00.189Z,2.30
2022-09-13T21:31:33.161Z,2.10
2022-09-13T21:34:07.202Z,2.30
2022-09-13T21:36:35.897Z,2.50
2022-09-13T21:39:05.213Z,2.20
2022-09-13T21:41:33.311Z,2.20
2022-09-13T21:44:01.037Z,2.20
2022-09-13T21:46:35.183Z,2.47
2022-09-13T21:49:05.793Z,2.20
2022-09-13T21:51:36.849Z,2.20
2022-09-13T21:54:08.227Z,2.13
2022-09-13T21:56:39.833Z,2.40
2022-09-13T21:59:15.533Z,2.47
2022-09-13T22:01:47.989Z,2.00
2022-09-13T22:04:22.881Z,2.10
2022-09-13T22:06:51.841Z,2.33
2022-09-13T22:09:21.113Z,2.07
2022-09-13T22:11:49.653Z,2.30
2022-09-13T22:14:19.535Z,1.93
2022-09-13T22:16:46.759Z,2.30
2022-09-13T22:19:21.592Z,2.20
2022-09-13T22:21:53.438Z,2.23
2022-09-13T22:24:23.996Z,2.30
2022-09-13T22:26:52.757Z,2.30
2022-09-13T22:29:21.527Z,2.50
2022-09-13T22:31:51.202Z,2.07
2022-09-13T22:34:24.260Z,2.00
2022-09-13T22:36:54.186Z,2.90
2022-09-13T22:39:21.366Z,2.37
2022-09-13T22:41:48.596Z,2.63
2022-09-13T22:44:15.745Z,2.07
2022-09-13T22:46:46.702Z,2.20
2022-09-13T22:49:22.979Z,2.40
2022-09-13T22:51:50.146Z,2.67
2022-09-13T22:54:19.517Z,2.10
2022-09-13T22:56:48.151Z,2.60
2022-09-13T22:59:20.063Z,2.47
2022-09-13T23:01:48.672Z,1.90
2022-09-13T23:04:16.182Z,2.40
2022-09-13T23:06:44.238Z,3.10
2022-09-13T23:09:17.049Z,2.97
2022-09-13T23:11:45.134Z,2.93
2022-09-13T23:14:15.238Z,2.70
2022-09-13T23:16:45.944Z,2.40
2022-09-13T23:19:15.020Z,2.77
2022-09-13T23:21:43.850Z,2.53
2022-09-13T23:24:15.585Z,2.60
2022-09-13T23:26:44.473Z,2.47
2022-09-13T23:29:15.980Z,2.70
2022-09-13T23:31:43.917Z,2.70
2022-09-13T23:34:12.667Z,2.50
2022-09-13T23:36:42.808Z,2.97
2022-09-13T23:39:15.563Z,2.50
2022-09-13T23:41:43.458Z,2.93
2022-09-13T23:44:10.715Z,2.97
2022-09-13T23:46:38.004Z,2.80
2022-09-13T23:49:05.275Z,2.70
2022-09-13T23:51:32.764Z,2.70
2022-09-13T23:54:00.202Z,3.07
2022-09-13T23:56:31.541Z,2.90
2022-09-13T23:59:01.697Z,2.80
